Time;durP1;ratioP1;P1;durP2;ratioP2;P2;SDS_P1;SDS_P2;PMS_P1;PMS_P2;Temp;Humidity;BMP_temperature;BMP_pressure;BME280_temperature;BME280_humidity;BME280_pressure;Samples;Min_cycle;Max_cycle;Signal;HPM_P1;HPM_P2
2022/11/25 00:01:25;;;;;;;;;;;;;;;19.50;47.31;100732.25;5127432;28;19968;-44
2022/11/25 00:03:52;;;;;;;;;;;;;;;19.50;47.35;100732.25;5127427;27;20018;-43
2022/11/25 00:06:19;;;;;;;;;;;;;;;19.50;47.40;100735.00;5107853;28;20022;-42
2022/11/25 00:08:48;;;;;;;;;;;;;;;19.50;47.52;100736.94;5105856;28;19963;-45
2022/11/25 00:11:14;;;;;;;;;;;;;;;19.49;47.50;100730.59;5128783;27;19971;-45
2022/11/25 00:13:39;;;;;;;;;;;;;;;19.50;47.17;100725.91;5109935;28;19924;-44
2022/11/25 00:16:07;;;;;;;;;;;;;;;19.50;47.44;100723.13;5105402;28;20022;-46
2022/11/25 00:18:33;;;;;;;;;;;;;;;19.50;47.29;100715.66;5128300;28;19943;-43
2022/11/25 00:21:03;;;;;;;;;;;;;;;19.50;47.15;100712.09;5127456;28;19927;-45
2022/11/25 00:23:28;;;;;;;;;;;;;;;19.50;47.27;100720.38;5107936;28;20435;-45
2022/11/25 00:26:14;;;;;;;;;;;;;;;19.50;47.17;100714.84;5125431;27;19953;-44
2022/11/25 00:28:40;;;;;;;;;;;;;;;19.49;47.27;100711.28;5104676;28;19963;-44
2022/11/25 00:31:07;;;;;;;;;;;;;;;19.48;47.44;100715.16;5110198;28;20371;-44
2022/11/25 00:33:32;;;;;;;;;;;;;;;19.48;47.58;100698.56;5105547;28;19954;-46
2022/11/25 00:36:00;;;;;;;;;;;;;;;19.48;47.17;100717.09;5125196;28;20293;-42
2022/11/25 00:38:25;;;;;;;;;;;;;;;19.48;47.47;100706.88;5126363;28;20014;-44
2022/11/25 00:44:34;;;;;;;;;;;;;;;19.48;47.27;100697.75;5121349;28;20989;-43
2022/11/25 00:46:22;;;;;;;;;;;;;;;19.49;47.50;100693.88;5108268;28;20029;-43
2022/11/25 00:48:47;;;;;;;;;;;;;;;19.49;47.64;100700.22;5123555;28;19949;-43
2022/11/25 00:51:13;;;;;;;;;;;;;;;19.49;47.25;100704.91;5127784;28;19933;-43
2022/11/25 00:53:39;;;;;;;;;;;;;;;19.47;47.16;100696.94;5128634;28;20424;-43
2022/11/25 00:56:11;;;;;;;;;;;;;;;19.48;47.59;100703.28;5124210;28;19930;-46
2022/11/25 00:58:37;;;;;;;;;;;;;;;19.47;47.52;100694.19;5122992;28;20450;-45
2022/11/25 01:01:03;;;;;;;;;;;;;;;19.47;47.56;100705.22;5125020;28;20108;-43
2022/11/25 01:03:28;;;;;;;;;;;;;;;19.47;47.16;100702.47;5126337;27;19931;-45
2022/11/25 01:05:54;;;;;;;;;;;;;;;19.48;47.61;100697.75;5122816;28;19930;-44
2022/11/25 01:08:19;;;;;;;;;;;;;;;19.47;47.28;100705.22;5123582;28;19924;-44
2022/11/25 01:10:45;;;;;;;;;;;;;;;19.47;47.29;100698.84;5106077;28;19946;-43
2022/11/25 01:13:11;;;;;;;;;;;;;;;19.47;47.28;100694.19;5125565;28;20063;-42
2022/11/25 01:15:36;;;;;;;;;;;;;;;19.48;47.52;100697.75;5123945;28;20387;-43
2022/11/25 01:18:02;;;;;;;;;;;;;;;19.47;47.58;100690.56;5107025;28;19939;-45
2022/11/25 01:20:27;;;;;;;;;;;;;;;19.47;47.37;100685.03;5126348;28;19931;-44
2022/11/25 01:22:53;;;;;;;;;;;;;;;19.46;47.28;100689.75;5127786;28;20981;-43
2022/11/25 01:25:18;;;;;;;;;;;;;;;19.46;47.30;100689.75;5120623;27;19927;-45
2022/11/25 01:27:44;;;;;;;;;;;;;;;19.46;47.27;100692.50;5127039;28;19923;-44
2022/11/25 01:30:10;;;;;;;;;;;;;;;19.48;47.21;100700.53;5125302;28;19938;-45
2022/11/25 01:32:35;;;;;;;;;;;;;;;19.46;47.21;100695.25;5125257;28;19983;-43
2022/11/25 01:35:01;;;;;;;;;;;;;;;19.46;47.50;100692.50;5124861;27;19934;-43
2022/11/25 01:37:26;;;;;;;;;;;;;;;19.46;47.26;100686.97;5119242;28;20382;-43
2022/11/25 01:39:52;;;;;;;;;;;;;;;19.45;47.31;100690.84;5123318;28;19924;-44
2022/11/25 01:42:18;;;;;;;;;;;;;;;19.46;47.33;100698.03;5128335;28;19923;-43
2022/11/25 01:44:43;;;;;;;;;;;;;;;19.46;47.40;100694.44;5120782;28;20407;-43
2022/11/25 01:47:11;;;;;;;;;;;;;;;19.46;47.53;100691.69;5125182;28;19924;-44
2022/11/25 01:49:40;;;;;;;;;;;;;;;19.45;47.25;100690.84;5125241;28;20454;-47
2022/11/25 01:52:25;;;;;;;;;;;;;;;19.46;47.14;100688.91;5123576;28;19971;-43
2022/11/25 01:57:28;;;;;;;;;;;;;;;19.45;47.53;100690.84;5174599;27;19930;-42
2022/11/25 01:59:54;;;;;;;;;;;;;;;19.45;47.35;100692.81;5158428;27;19963;-41
2022/11/25 02:02:20;;;;;;;;;;;;;;;19.45;47.58;100688.09;5159122;27;19927;-41
2022/11/25 02:04:46;;;;;;;;;;;;;;;19.44;47.27;100686.47;5152765;27;20384;-40
2022/11/25 02:07:13;;;;;;;;;;;;;;;19.44;47.33;100682.88;5149234;27;19927;-41
2022/11/25 02:09:40;;;;;;;;;;;;;;;19.45;47.47;100679.00;5152570;27;19926;-41
2022/11/25 02:12:05;;;;;;;;;;;;;;;19.45;47.57;100673.47;5152539;27;19962;-41
2022/11/25 02:14:31;;;;;;;;;;;;;;;19.44;47.35;100674.59;5148158;27;19931;-43
2022/11/25 02:16:58;;;;;;;;;;;;;;;19.44;47.47;100680.94;5150186;27;19942;-41
2022/11/25 02:19:26;;;;;;;;;;;;;;;19.43;47.57;100676.53;5138068;27;19978;-40
2022/11/25 02:21:54;;;;;;;;;;;;;;;19.44;47.23;100672.66;5157797;27;19969;-40
2022/11/25 02:24:26;;;;;;;;;;;;;;;19.44;47.50;100666.31;5133751;27;20215;-45
2022/11/25 02:26:51;;;;;;;;;;;;;;;19.43;47.59;100671.00;5151584;27;19962;-42
2022/11/25 02:29:17;;;;;;;;;;;;;;;19.44;47.31;100677.34;5150896;27;20272;-45
2022/11/25 02:31:42;;;;;;;;;;;;;;;19.44;47.40;100678.16;5149383;27;19939;-45
2022/11/25 02:34:09;;;;;;;;;;;;;;;19.43;47.64;100673.78;5149933;27;20362;-44
2022/11/25 02:36:35;;;;;;;;;;;;;;;19.43;47.31;100668.25;5150976;27;20017;-41
2022/11/25 02:39:00;;;;;;;;;;;;;;;19.43;47.42;100671.00;5133953;27;19938;-41
2022/11/25 02:41:46;;;;;;;;;;;;;;;19.43;47.40;100676.53;5152214;27;20378;-42
2022/11/25 02:44:11;;;;;;;;;;;;;;;19.43;47.34;100679.28;5134904;27;19970;-40
2022/11/25 02:46:37;;;;;;;;;;;;;;;19.43;47.46;100682.06;5129101;27;19923;-43
2022/11/25 02:49:02;;;;;;;;;;;;;;;19.43;47.29;100684.81;5150618;27;19931;-42
2022/11/25 02:51:37;;;;;;;;;;;;;;;19.42;47.20;100687.84;5153096;27;19946;-40
2022/11/25 02:54:02;;;;;;;;;;;;;;;19.43;47.22;100697.78;5131526;27;19934;-43
2022/11/25 02:56:29;;;;;;;;;;;;;;;19.42;47.65;100690.59;5131322;27;20011;-41
2022/11/25 02:58:54;;;;;;;;;;;;;;;19.43;47.51;100693.09;5133324;27;19971;-40
2022/11/25 03:01:20;;;;;;;;;;;;;;;19.43;47.37;100689.47;5157650;27;19929;-40
2022/11/25 03:03:46;;;;;;;;;;;;;;;19.43;47.51;100700.53;5148838;27;20154;-42
2022/11/25 03:06:11;;;;;;;;;;;;;;;19.42;47.47;100690.59;5148400;27;20416;-41
2022/11/25 03:08:37;;;;;;;;;;;;;;;19.42;47.32;100699.72;5136957;27;19931;-43
2022/11/25 03:11:03;;;;;;;;;;;;;;;19.42;47.64;100691.44;5133931;27;19923;-41
2022/11/25 03:13:28;;;;;;;;;;;;;;;19.42;47.58;100685.09;5119134;27;19923;-42
2022/11/25 03:15:54;;;;;;;;;;;;;;;19.41;47.55;100700.00;5120329;27;19941;-40
2022/11/25 03:18:19;;;;;;;;;;;;;;;19.42;47.22;100682.31;5137457;27;19924;-42
2022/11/25 03:20:45;;;;;;;;;;;;;;;19.41;47.51;100689.78;5136139;27;19975;-41
2022/11/25 03:23:10;;;;;;;;;;;;;;;19.41;47.51;100687.03;5141774;27;19953;-41
2022/11/25 03:25:36;;;;;;;;;;;;;;;19.41;47.69;100694.50;5139713;27;19930;-41
2022/11/25 03:28:02;;;;;;;;;;;;;;;19.41;47.59;100688.97;5136307;27;20291;-42
2022/11/25 03:30:27;;;;;;;;;;;;;;;19.41;47.59;100694.50;5141416;27;20201;-42
2022/11/25 03:32:53;;;;;;;;;;;;;;;19.41;47.65;100702.78;5132710;27;19966;-41
2022/11/25 03:35:18;;;;;;;;;;;;;;;19.41;47.26;100705.53;5137133;27;19931;-41
2022/11/25 03:37:44;;;;;;;;;;;;;;;19.41;47.68;100713.81;5136460;27;20498;-42
2022/11/25 03:40:10;;;;;;;;;;;;;;;19.41;47.63;100719.34;5118281;27;19923;-43
2022/11/25 03:42:36;;;;;;;;;;;;;;;19.41;47.26;100727.63;5135815;27;19970;-41
2022/11/25 03:45:02;;;;;;;;;;;;;;;19.41;47.61;100730.38;5136288;27;19987;-41
2022/11/25 03:47:27;;;;;;;;;;;;;;;19.41;47.54;100735.91;5117750;27;20006;-42
2022/11/25 03:49:53;;;;;;;;;;;;;;;19.40;47.40;100729.56;5140163;27;20374;-40
2022/11/25 03:52:18;;;;;;;;;;;;;;;19.40;47.50;100735.09;5133780;27;19923;-41
2022/11/25 03:54:44;;;;;;;;;;;;;;;19.40;47.47;100731.50;5138999;27;20357;-41
2022/11/25 03:57:09;;;;;;;;;;;;;;;19.41;47.46;100735.91;5136478;27;20359;-41
2022/11/25 03:59:35;;;;;;;;;;;;;;;19.40;47.52;100739.78;5136845;27;19928;-40
2022/11/25 04:02:00;;;;;;;;;;;;;;;19.40;47.76;100748.06;5131744;27;19934;-42
2022/11/25 04:04:26;;;;;;;;;;;;;;;19.40;47.64;100732.31;5136011;27;20378;-41
2022/11/25 04:06:52;;;;;;;;;;;;;;;19.39;47.46;100744.50;5137385;27;19934;-41
2022/11/25 04:09:17;;;;;;;;;;;;;;;19.39;47.61;100743.66;5136478;27;20097;-42
2022/11/25 04:14:28;;;;;;;;;;;;;;;19.39;47.46;100741.72;5118770;27;20481;-42
2022/11/25 04:16:54;;;;;;;;;;;;;;;19.39;47.63;100744.50;5136212;27;19923;-41
2022/11/25 04:19:19;;;;;;;;;;;;;;;19.39;47.48;100744.50;5133911;27;19923;-41
2022/11/25 04:21:45;;;;;;;;;;;;;;;19.39;47.46;100743.66;5132926;27;19930;-42
2022/11/25 04:24:17;;;;;;;;;;;;;;;19.39;47.33;100744.50;5133099;27;20359;-44
2022/11/25 04:26:43;;;;;;;;;;;;;;;19.40;47.59;100751.66;5135168;27;19933;-41
2022/11/25 04:29:09;;;;;;;;;;;;;;;19.38;47.67;100748.34;5134695;27;20082;-43
2022/11/25 04:31:36;;;;;;;;;;;;;;;19.38;47.71;100745.59;5137148;27;19928;-42
2022/11/25 04:34:02;;;;;;;;;;;;;;;19.38;47.29;100745.59;5138810;27;19954;-42
2022/11/25 04:36:28;;;;;;;;;;;;;;;19.39;47.67;100754.72;5134484;27;21128;-40
2022/11/25 04:38:53;;;;;;;;;;;;;;;19.39;47.62;100754.72;5139041;27;19942;-42
2022/11/25 04:41:19;;;;;;;;;;;;;;;19.39;47.72;100754.72;5136564;27;19977;-43
2022/11/25 04:43:44;;;;;;;;;;;;;;;19.38;47.62;100755.81;5133281;27;19923;-41
2022/11/25 04:46:13;;;;;;;;;;;;;;;19.38;47.43;100762.16;5134037;27;19931;-42
2022/11/25 04:48:40;;;;;;;;;;;;;;;19.39;47.67;100766.59;5134456;27;20374;-40
2022/11/25 04:51:05;;;;;;;;;;;;;;;19.38;47.34;100759.38;5136035;27;19923;-42
2022/11/25 04:53:31;;;;;;;;;;;;;;;19.39;47.60;100763.00;5135589;27;20671;-41
2022/11/25 04:55:56;;;;;;;;;;;;;;;19.38;47.67;100770.44;5133154;27;19927;-40
2022/11/25 05:01:07;;;;;;;;;;;;;;;19.38;47.61;100772.38;5118267;27;20345;-41
2022/11/25 05:03:33;;;;;;;;;;;;;;;19.38;47.33;100777.91;5139033;27;19923;-40
2022/11/25 05:05:58;;;;;;;;;;;;;;;19.38;47.27;100777.91;5139844;27;19942;-42
2022/11/25 05:08:24;;;;;;;;;;;;;;;19.37;47.58;100782.59;5134784;27;19968;-41
2022/11/25 05:10:50;;;;;;;;;;;;;;;19.38;47.65;100781.47;5136821;27;19932;-40
2022/11/25 05:13:15;;;;;;;;;;;;;;;19.38;47.43;100786.19;5132298;27;20318;-41
2022/11/25 05:15:42;;;;;;;;;;;;;;;19.37;47.46;100785.34;5131125;27;19967;-42
2022/11/25 05:18:07;;;;;;;;;;;;;;;19.37;47.52;100793.66;5136274;27;20448;-40
2022/11/25 05:20:33;;;;;;;;;;;;;;;19.38;47.49;100794.47;5137744;27;19926;-40
2022/11/25 05:22:58;;;;;;;;;;;;;;;19.37;47.43;100798.34;5136415;27;19931;-41
2022/11/25 05:25:25;;;;;;;;;;;;;;;19.37;47.61;100803.88;5139130;27;19923;-40
2022/11/25 05:27:51;;;;;;;;;;;;;;;19.38;47.44;100803.56;5134313;27;19958;-41
2022/11/25 05:30:16;;;;;;;;;;;;;;;19.37;47.62;100793.66;5133066;27;19980;-41
2022/11/25 05:32:43;;;;;;;;;;;;;;;19.37;47.36;100798.34;5132435;27;20034;-41
2022/11/25 05:35:08;;;;;;;;;;;;;;;19.36;47.45;100797.53;5135811;27;21174;-40
2022/11/25 05:37:34;;;;;;;;;;;;;;;19.37;47.72;100801.09;5133562;27;19923;-41
2022/11/25 05:39:59;;;;;;;;;;;;;;;19.37;47.59;100799.16;5130927;27;19939;-41
2022/11/25 05:42:25;;;;;;;;;;;;;;;19.36;47.55;100800.28;5133272;27;20316;-41
2022/11/25 05:44:50;;;;;;;;;;;;;;;19.38;47.41;100800.81;5130391;27;19923;-41
2022/11/25 05:47:16;;;;;;;;;;;;;;;19.37;47.59;100806.63;5134379;27;19923;-40
2022/11/25 05:49:41;;;;;;;;;;;;;;;19.37;47.43;100807.44;5135601;27;20287;-40
2022/11/25 05:52:07;;;;;;;;;;;;;;;19.37;47.47;100803.88;5127306;27;19931;-43
2022/11/25 05:54:32;;;;;;;;;;;;;;;19.37;47.56;100806.63;5130187;27;20327;-40
2022/11/25 05:56:58;;;;;;;;;;;;;;;19.36;47.46;100816.84;5135027;27;19931;-42
2022/11/25 05:59:24;;;;;;;;;;;;;;;19.36;47.37;100816.84;5140667;27;19931;-40
2022/11/25 06:01:51;;;;;;;;;;;;;;;19.37;47.50;100823.19;5134584;27;19923;-42
2022/11/25 06:04:17;;;;;;;;;;;;;;;19.36;47.29;100822.38;5133240;27;19974;-42
2022/11/25 06:06:42;;;;;;;;;;;;;;;19.36;47.41;100825.13;5125402;27;19924;-41
2022/11/25 06:09:08;;;;;;;;;;;;;;;19.36;47.45;100836.19;5125754;27;19924;-40
2022/11/25 06:11:33;;;;;;;;;;;;;;;19.36;47.37;100832.59;5132307;27;19924;-41
2022/11/25 06:13:59;;;;;;;;;;;;;;;19.36;47.42;100832.59;5131341;27;19939;-45
2022/11/25 06:16:25;;;;;;;;;;;;;;;19.37;47.65;100831.47;5133712;27;20402;-43
2022/11/25 06:18:50;;;;;;;;;;;;;;;19.37;47.57;100837.81;5131105;27;19962;-43
2022/11/25 06:21:16;;;;;;;;;;;;;;;19.37;47.53;100848.88;5128879;27;19943;-41
2022/11/25 06:23:44;;;;;;;;;;;;;;;19.35;47.26;100845.59;5101191;27;19933;-42
2022/11/25 06:26:12;;;;;;;;;;;;;;;19.36;47.28;100849.16;5122262;27;20355;-42
2022/11/25 06:28:37;;;;;;;;;;;;;;;19.36;47.38;100861.03;5110084;27;19981;-43
2022/11/25 06:31:05;;;;;;;;;;;;;;;19.35;47.42;100858.56;5128116;27;19924;-43
2022/11/25 06:33:30;;;;;;;;;;;;;;;19.35;47.36;100859.41;5126681;27;20327;-41
2022/11/25 06:35:56;;;;;;;;;;;;;;;19.36;47.52;100858.28;5126860;27;20363;-41
2022/11/25 06:38:21;;;;;;;;;;;;;;;19.36;47.48;100857.47;5124788;27;19954;-40
2022/11/25 06:40:47;;;;;;;;;;;;;;;19.35;47.56;100853.88;5126151;27;19935;-41
2022/11/25 06:43:13;;;;;;;;;;;;;;;19.34;47.51;100866.00;5126683;27;19939;-43
2022/11/25 06:45:38;;;;;;;;;;;;;;;19.35;47.55;100872.38;5123852;27;19935;-41
2022/11/25 06:48:04;;;;;;;;;;;;;;;19.35;47.50;100870.44;5115789;27;19932;-41
2022/11/25 06:50:29;;;;;;;;;;;;;;;19.35;47.62;100870.44;5132572;27;19930;-45
2022/11/25 06:52:55;;;;;;;;;;;;;;;19.34;47.28;100871.53;5119997;27;19924;-41
2022/11/25 06:55:20;;;;;;;;;;;;;;;19.34;47.21;100881.75;5114861;27;20027;-42
2022/11/25 06:57:46;;;;;;;;;;;;;;;19.35;47.60;100884.25;5119622;27;20329;-40
2022/11/25 07:00:12;;;;;;;;;;;;;;;19.34;47.54;100885.31;5106289;27;19931;-41
2022/11/25 07:02:37;;;;;;;;;;;;;;;19.35;47.40;100886.19;5103572;27;19981;-40
2022/11/25 07:05:10;;;;;;;;;;;;;;;19.35;47.30;100888.94;5098110;27;19931;-43
2022/11/25 07:07:36;;;;;;;;;;;;;;;19.35;47.57;100891.72;5105838;27;20000;-41
2022/11/25 07:10:02;;;;;;;;;;;;;;;19.35;47.56;100895.28;5109447;27;19931;-40
2022/11/25 07:12:29;;;;;;;;;;;;;;;19.34;47.23;100901.91;5111204;27;19928;-40
2022/11/25 07:14:54;;;;;;;;;;;;;;;19.34;47.47;100901.91;5113009;27;20467;-41
2022/11/25 07:17:20;;;;;;;;;;;;;;;19.34;47.32;100904.66;5112853;27;19988;-42
2022/11/25 07:19:45;;;;;;;;;;;;;;;19.34;47.66;100904.66;5121795;27;19924;-43
2022/11/25 07:22:11;;;;;;;;;;;;;;;19.34;47.35;100909.38;5120352;27;19952;-43
2022/11/25 07:24:36;;;;;;;;;;;;;;;19.33;47.54;100911.31;5118481;27;19962;-42
2022/11/25 07:27:05;;;;;;;;;;;;;;;19.34;47.29;100920.41;5119894;27;19924;-42
2022/11/25 07:29:30;;;;;;;;;;;;;;;19.34;47.35;100920.41;5115016;27;19931;-42
2022/11/25 07:32:16;;;;;;;;;;;;;;;19.34;47.39;100926.75;5103640;27;20301;-42
2022/11/25 07:34:41;;;;;;;;;;;;;;;19.33;47.26;100930.63;5117964;27;20398;-40
2022/11/25 07:37:07;;;;;;;;;;;;;;;19.34;47.35;100936.97;5118107;27;19924;-41
2022/11/25 07:39:33;;;;;;;;;;;;;;;19.33;47.62;100933.38;5120813;27;19939;-43
2022/11/25 07:41:58;;;;;;;;;;;;;;;19.34;47.56;100939.72;5118457;27;19946;-41
2022/11/25 07:44:24;;;;;;;;;;;;;;;19.34;47.23;100954.38;5120960;27;19931;-42
2022/11/25 07:46:50;;;;;;;;;;;;;;;19.34;47.28;100957.13;5119316;27;19932;-40
2022/11/25 07:49:17;;;;;;;;;;;;;;;19.35;47.27;100963.50;5101919;27;20352;-44
2022/11/25 07:51:46;;;;;;;;;;;;;;;19.34;47.28;100967.34;5124377;27;20264;-42
2022/11/25 07:54:12;;;;;;;;;;;;;;;19.34;47.31;100972.88;5115491;27;20087;-42
2022/11/25 07:56:38;;;;;;;;;;;;;;;19.32;47.46;100978.69;5098109;28;20022;-44
2022/11/25 07:59:04;;;;;;;;;;;;;;;19.33;47.30;100969.28;5114817;27;19977;-46
2022/11/25 08:01:30;;;;;;;;;;;;;;;19.33;47.54;100965.69;5102140;27;19932;-42
2022/11/25 08:03:55;;;;;;;;;;;;;;;18.82;47.78;100971.31;5098256;27;19924;-45
2022/11/25 08:06:22;;;;;;;;;;;;;;;19.18;47.67;100972.09;5097110;27;20837;-41
2022/11/25 08:08:48;;;;;;;;;;;;;;;19.27;47.55;100979.53;5093529;27;19932;-40
2022/11/25 08:11:15;;;;;;;;;;;;;;;19.30;47.42;100978.16;5095135;27;20113;-42
2022/11/25 08:13:41;;;;;;;;;;;;;;;19.32;47.58;100991.66;5105423;27;20007;-40
2022/11/25 08:16:06;;;;;;;;;;;;;;;19.33;47.38;100996.91;5103744;27;20339;-43
2022/11/25 08:18:32;;;;;;;;;;;;;;;19.34;47.35;101004.06;5083735;27;19939;-42
2022/11/25 08:20:59;;;;;;;;;;;;;;;19.35;47.58;100996.66;5088797;28;19931;-44
2022/11/25 08:23:24;;;;;;;;;;;;;;;19.35;47.46;101008.50;5113469;27;20366;-43
2022/11/25 08:25:50;;;;;;;;;;;;;;;19.35;47.64;101008.50;5096397;28;19973;-43
2022/11/25 08:28:16;;;;;;;;;;;;;;;19.36;47.69;101007.41;5115258;27;19931;-42
2022/11/25 08:30:41;;;;;;;;;;;;;;;19.36;47.69;101009.34;5116072;27;20151;-41
2022/11/25 08:33:07;;;;;;;;;;;;;;;19.37;47.37;101011.81;5108264;27;19923;-41
2022/11/25 08:35:36;;;;;;;;;;;;;;;19.37;47.70;101011.81;5103724;27;20094;-41
2022/11/25 08:38:05;;;;;;;;;;;;;;;19.38;47.77;101020.91;5103479;27;19983;-40
2022/11/25 08:40:32;;;;;;;;;;;;;;;19.39;47.62;101017.06;5113455;27;20059;-40
2022/11/25 08:42:57;;;;;;;;;;;;;;;19.39;47.63;101014.31;5095441;27;20167;-40
2022/11/25 08:45:23;;;;;;;;;;;;;;;19.39;47.27;101022.59;5081494;27;20371;-41
2022/11/25 08:47:48;;;;;;;;;;;;;;;19.38;47.44;101027.25;5107894;27;20271;-42
2022/11/25 08:50:14;;;;;;;;;;;;;;;19.39;47.57;101028.94;5102815;27;19938;-41
2022/11/25 08:52:40;;;;;;;;;;;;;;;19.40;47.33;101035.28;5091644;27;20588;-41
2022/11/25 08:55:05;;;;;;;;;;;;;;;19.39;47.49;101031.69;5099152;27;20036;-41
2022/11/25 08:57:31;;;;;;;;;;;;;;;19.40;47.60;101038.88;5108559;27;20024;-40
2022/11/25 08:59:56;;;;;;;;;;;;;;;19.41;47.52;101028.66;5106318;27;19924;-42
2022/11/25 09:02:22;;;;;;;;;;;;;;;19.42;47.45;101033.06;5107406;27;19928;-41
2022/11/25 09:04:48;;;;;;;;;;;;;;;19.42;47.41;101038.59;5107705;27;19927;-41
2022/11/25 09:07:13;;;;;;;;;;;;;;;19.42;47.20;101044.94;5084460;27;20613;-46
2022/11/25 09:09:39;;;;;;;;;;;;;;;19.42;47.56;101046.88;5100454;27;19924;-45
2022/11/25 09:12:05;;;;;;;;;;;;;;;19.42;47.49;101050.44;5096612;27;20453;-48
2022/11/25 09:14:31;;;;;;;;;;;;;;;19.41;47.40;101062.63;5094782;27;20085;-46
2022/11/25 09:16:56;;;;;;;;;;;;;;;19.42;47.43;101060.69;5101209;27;19931;-47
2022/11/25 09:19:22;;;;;;;;;;;;;;;19.42;47.39;101064.25;5099860;27;20349;-43
2022/11/25 09:21:47;;;;;;;;;;;;;;;19.42;47.40;101067.03;5111954;27;19924;-41
2022/11/25 09:24:13;;;;;;;;;;;;;;;19.42;47.55;101069.78;5121258;27;19932;-42
2022/11/25 09:26:39;;;;;;;;;;;;;;;19.42;47.75;101068.97;5112123;27;19927;-45
2022/11/25 09:29:05;;;;;;;;;;;;;;;19.44;47.38;101075.88;5109143;27;20008;-44
2022/11/25 09:31:31;;;;;;;;;;;;;;;19.44;47.44;101077.81;5114310;27;20871;-40
2022/11/25 09:33:56;;;;;;;;;;;;;;;19.45;47.55;101079.47;5109161;27;19931;-44
2022/11/25 09:36:23;;;;;;;;;;;;;;;19.45;47.89;101079.47;5107468;27;20259;-46
2022/11/25 09:38:48;;;;;;;;;;;;;;;19.44;47.69;101075.88;5089390;27;20227;-42
2022/11/25 09:46:40;;;;;;;;;;;;;;;19.46;47.72;101092.97;5110868;27;19942;-43
2022/11/25 09:47:02;;;;;;;;;;;;;;;19.44;47.68;101102.66;5099229;27;19938;-47
2022/11/25 09:52:22;;;;;;;;;;;;;;;19.43;47.42;101098.22;5169323;27;19934;-43
2022/11/25 09:55:05;;;;;;;;;;;;;;;19.44;47.45;101111.78;5126342;27;20026;-43
2022/11/25 09:57:50;;;;;;;;;;;;;;;19.44;47.41;101105.44;5145328;27;19970;-42
2022/11/25 10:00:23;;;;;;;;;;;;;;;19.44;47.50;101109.03;5133071;27;19928;-43
2022/11/25 10:02:57;;;;;;;;;;;;;;;19.45;47.56;101116.19;5148207;27;19938;-42
2022/11/25 10:05:26;;;;;;;;;;;;;;;19.45;47.68;101121.72;5133955;27;20121;-44
2022/11/25 10:07:52;;;;;;;;;;;;;;;19.46;47.77;101119.78;5132318;27;20026;-41
2022/11/25 10:10:19;;;;;;;;;;;;;;;19.45;47.51;101121.72;5144561;27;20026;-43
2022/11/25 10:12:44;;;;;;;;;;;;;;;19.46;47.68;101117.84;5152225;27;20347;-43
2022/11/25 10:15:18;;;;;;;;;;;;;;;19.47;47.73;101129.72;5144755;27;19927;-43
2022/11/25 10:17:48;;;;;;;;;;;;;;;19.47;47.56;101129.72;5129813;27;19928;-48
2022/11/25 10:20:16;;;;;;;;;;;;;;;19.47;47.68;101138.00;5148581;27;19966;-45
2022/11/25 10:22:42;;;;;;;;;;;;;;;19.47;47.51;101132.47;5129436;27;19969;-43
2022/11/25 10:25:13;;;;;;;;;;;;;;;19.47;47.72;101140.75;5133061;27;20025;-44
2022/11/25 10:27:41;;;;;;;;;;;;;;;19.48;47.72;101136.91;5147439;27;20026;-44
2022/11/25 10:30:24;;;;;;;;;;;;;;;19.48;47.41;101150.72;5131805;27;19978;-47
2022/11/25 10:32:52;;;;;;;;;;;;;;;19.49;47.57;101147.69;5127337;27;19929;-43
2022/11/25 10:35:27;;;;;;;;;;;;;;;19.48;47.34;101142.44;5126038;27;20010;-44
2022/11/25 10:37:54;;;;;;;;;;;;;;;19.49;47.70;101150.44;5142476;27;20213;-45
2022/11/25 10:40:19;;;;;;;;;;;;;;;19.49;47.45;101153.19;5142977;27;20662;-44
2022/11/25 10:42:45;;;;;;;;;;;;;;;19.49;47.65;101155.97;5133751;27;20409;-44
2022/11/25 10:45:10;;;;;;;;;;;;;;;19.50;47.31;101156.78;5144662;27;19931;-48
2022/11/25 10:47:44;;;;;;;;;;;;;;;19.49;47.28;101163.44;5127683;27;20081;-40
2022/11/25 10:50:12;;;;;;;;;;;;;;;19.48;47.71;101161.78;5134641;27;19927;-44
2022/11/25 10:52:55;;;;;;;;;;;;;;;19.48;47.61;101164.53;5138222;27;20379;-40
2022/11/25 10:55:23;;;;;;;;;;;;;;;19.47;47.56;101154.56;5124007;27;19958;-41
2022/11/25 10:57:48;;;;;;;;;;;;;;;19.48;47.60;101172.81;5144409;27;19960;-43
2022/11/25 11:00:34;;;;;;;;;;;;;;;19.47;47.32;101160.94;5143918;27;19975;-41
2022/11/25 11:03:12;;;;;;;;;;;;;;;19.48;47.33;101167.31;5137480;27;20172;-41
2022/11/25 11:05:43;;;;;;;;;;;;;;;19.47;47.27;101169.25;5121351;27;20005;-41
2022/11/25 11:08:15;;;;;;;;;;;;;;;19.47;47.38;101172.00;5134316;27;19928;-40
2022/11/25 11:10:40;;;;;;;;;;;;;;;19.47;47.60;101168.38;5139815;27;20395;-45
2022/11/25 11:13:23;;;;;;;;;;;;;;;19.47;47.63;101169.25;5131171;27;19938;-41
2022/11/25 11:15:49;;;;;;;;;;;;;;;19.47;47.52;101179.44;5109358;27;20303;-40
2022/11/25 11:18:34;;;;;;;;;;;;;;;19.47;47.21;101174.75;5137589;27;19945;-41
2022/11/25 11:21:00;;;;;;;;;;;;;;;19.49;47.59;101188.28;5126269;27;20391;-43
2022/11/25 11:23:26;;;;;;;;;;;;;;;19.50;47.54;101189.94;5132669;27;20087;-41
2022/11/25 11:25:58;;;;;;;;;;;;;;;19.49;47.35;101197.41;5116166;27;19927;-44
2022/11/25 11:28:39;;;;;;;;;;;;;;;19.48;47.38;101195.75;5138486;27;20109;-43
2022/11/25 11:31:13;;;;;;;;;;;;;;;19.48;47.53;101194.91;5135487;27;19964;-43
2022/11/25 11:36:25;;;;;;;;;;;;;;;19.48;47.33;101200.44;5168602;27;19945;-40
2022/11/25 11:38:56;;;;;;;;;;;;;;;19.49;47.62;101200.16;5154726;27;19923;-42
2022/11/25 11:41:38;;;;;;;;;;;;;;;19.48;47.76;101204.03;5140180;27;19922;-42
2022/11/25 11:44:06;;;;;;;;;;;;;;;19.50;47.54;101204.56;5144799;27;20028;-40
2022/11/25 11:46:35;;;;;;;;;;;;;;;19.49;47.51;101202.91;5123532;27;20745;-40
2022/11/25 11:49:04;;;;;;;;;;;;;;;19.49;47.48;101205.69;5124532;27;20387;-42
2022/11/25 11:51:32;;;;;;;;;;;;;;;19.50;47.71;101212.84;5149588;27;20005;-41
2022/11/25 11:54:18;;;;;;;;;;;;;;;19.50;47.61;101212.03;5149731;27;20013;-44
2022/11/25 11:56:59;;;;;;;;;;;;;;;19.50;47.54;101210.09;5135141;27;20417;-45
2022/11/25 12:02:27;;;;;;;;;;;;;;;19.57;47.63;101214.53;5156896;27;19929;-40
2022/11/25 12:05:13;;;;;;;;;;;;;;;19.58;47.81;101221.72;5116157;27;19931;-41
2022/11/25 12:07:56;;;;;;;;;;;;;;;19.54;47.78;101215.91;5118980;27;19935;-40
2022/11/25 12:10:25;;;;;;;;;;;;;;;19.55;47.69;101220.31;5116595;27;19923;-41
2022/11/25 12:12:56;;;;;;;;;;;;;;;19.55;47.74;101220.31;5137270;27;20433;-41
2022/11/25 12:15:32;;;;;;;;;;;;;;;19.54;47.62;101233.31;5129020;27;20686;-42
2022/11/25 12:17:59;;;;;;;;;;;;;;;19.67;48.33;101237.47;5120120;27;20031;-42
2022/11/25 12:20:31;;;;;;;;;;;;;;;19.65;48.18;101238.88;5133182;27;20014;-41
2022/11/25 12:22:59;;;;;;;;;;;;;;;19.61;48.04;101238.59;5131534;27;20029;-43
2022/11/25 12:25:26;;;;;;;;;;;;;;;19.60;48.23;101244.34;5137510;27;20010;-42
2022/11/25 12:27:56;;;;;;;;;;;;;;;19.60;48.12;101247.13;5135320;27;20409;-43
2022/11/25 12:30:22;;;;;;;;;;;;;;;19.61;48.14;101259.88;5120732;27;20405;-41
2022/11/25 12:33:03;;;;;;;;;;;;;;;19.59;48.19;101254.56;5135968;27;19927;-41
2022/11/25 12:35:35;;;;;;;;;;;;;;;19.59;48.02;101251.81;5134388;27;19939;-41
2022/11/25 12:38:04;;;;;;;;;;;;;;;19.60;47.91;101255.41;5113925;27;19959;-42
2022/11/25 12:40:35;;;;;;;;;;;;;;;19.60;47.95;101256.22;5118447;27;19967;-42
2022/11/25 12:43:20;;;;;;;;;;;;;;;19.60;47.94;101258.16;5135342;27;19963;-43
2022/11/25 12:45:46;;;;;;;;;;;;;;;19.60;48.04;101266.44;5117535;27;20127;-42
2022/11/25 12:48:11;;;;;;;;;;;;;;;19.60;47.77;101264.50;5133205;27;19931;-43
2022/11/25 12:50:46;;;;;;;;;;;;;;;19.61;47.77;101268.16;5131450;27;20394;-41
2022/11/25 12:53:15;;;;;;;;;;;;;;;19.61;47.87;101268.16;5140684;27;19984;-42
2022/11/25 12:55:41;;;;;;;;;;;;;;;19.62;47.97;101270.63;5139282;27;19965;-40
2022/11/25 12:58:10;;;;;;;;;;;;;;;19.62;48.20;101284.47;5140391;27;19923;-42
2022/11/25 13:00:56;;;;;;;;;;;;;;;19.63;48.06;101290.81;5120228;27;19931;-42